createdAt,value
2018-05-13T00:01:10.135Z,64.70
2018-05-13T00:03:41.681Z,64.60
2018-05-13T00:06:13.006Z,64.60
2018-05-13T00:08:43.415Z,64.70
2018-05-13T00:11:13.484Z,64.60
2018-05-13T00:13:43.588Z,64.70
2018-05-13T00:16:13.600Z,64.70
2018-05-13T00:18:43.834Z,64.70
2018-05-13T00:21:13.948Z,64.60
2018-05-13T00:23:43.980Z,64.40
2018-05-13T00:26:14.080Z,64.30
2018-05-13T00:28:44.198Z,63.90
2018-05-13T00:31:14.281Z,63.80
2018-05-13T00:33:44.355Z,63.60
2018-05-13T00:36:14.391Z,63.70
2018-05-13T00:38:44.479Z,63.40
2018-05-13T00:41:14.639Z,63.40
2018-05-13T00:43:44.758Z,63.40
2018-05-13T00:46:14.858Z,62.60
2018-05-13T00:48:44.879Z,62.40
2018-05-13T00:51:14.908Z,62.30
2018-05-13T00:53:44.579Z,62.10
2018-05-13T00:56:14.661Z,62.30
2018-05-13T00:58:44.752Z,62.40
2018-05-13T01:01:14.452Z,61.90
2018-05-13T01:03:45.021Z,62.10
2018-05-13T01:06:18.797Z,62.30
2018-05-13T01:08:49.303Z,61.90
2018-05-13T01:11:20.160Z,64.90
2018-05-13T01:13:50.886Z,60.30
2018-05-13T01:16:21.400Z,63.20
2018-05-13T01:18:52.532Z,62.00
2018-05-13T01:21:22.647Z,62.10
2018-05-13T01:23:53.802Z,62.80
2018-05-13T01:26:24.868Z,63.30
2018-05-13T01:28:55.592Z,63.50
2018-05-13T01:31:26.339Z,64.30
2018-05-13T01:33:57.732Z,63.80
2018-05-13T01:36:27.795Z,64.00
2018-05-13T01:38:58.334Z,64.40
2018-05-13T01:41:28.444Z,64.40
2018-05-13T01:43:58.157Z,64.40
2018-05-13T01:46:28.775Z,64.50
2018-05-13T01:48:58.492Z,64.60
2018-05-13T01:51:29.223Z,64.30
2018-05-13T01:54:00.740Z,65.20
2018-05-13T01:56:30.906Z,64.50
2018-05-13T01:59:01.380Z,65.10
2018-05-13T02:01:31.456Z,64.50
2018-05-13T02:04:03.547Z,64.40
2018-05-13T02:06:34.152Z,64.70
2018-05-13T02:09:05.196Z,64.70
2018-05-13T02:11:35.192Z,64.50
2018-05-13T02:14:05.332Z,64.30
2018-05-13T02:16:35.956Z,64.20
2018-05-13T02:19:07.415Z,64.20
2018-05-13T02:21:38.255Z,65.10
2018-05-13T02:24:09.151Z,64.30
2018-05-13T02:26:38.982Z,64.40
2018-05-13T02:29:09.828Z,64.80
2018-05-13T02:31:41.550Z,64.60
2018-05-13T02:34:11.480Z,63.60
2018-05-13T02:36:41.748Z,63.50
2018-05-13T02:39:12.588Z,63.50
2018-05-13T02:41:44.283Z,63.90
2018-05-13T02:44:15.387Z,64.60
2018-05-13T02:46:45.088Z,64.70
2018-05-13T02:49:15.540Z,64.60
2018-05-13T02:51:46.140Z,64.20
2018-05-13T02:54:15.855Z,64.20
2018-05-13T02:56:45.567Z,64.70
2018-05-13T02:59:16.772Z,65.20
2018-05-13T03:01:47.870Z,67.40
2018-05-13T03:04:18.588Z,66.50
2018-05-13T03:06:48.600Z,66.90
2018-05-13T03:09:18.678Z,67.40
2018-05-13T03:11:48.388Z,67.90
2018-05-13T03:14:18.354Z,68.20
2018-05-13T03:16:49.691Z,68.40
2018-05-13T03:19:21.949Z,68.70
2018-05-13T03:21:52.795Z,69.60
2018-05-13T03:24:23.044Z,69.10
2018-05-13T03:26:53.156Z,73.20
2018-05-13T03:29:23.278Z,69.40
2018-05-13T03:31:54.801Z,69.50
2018-05-13T03:34:24.950Z,69.70
2018-05-13T03:36:55.697Z,69.90
2018-05-13T03:39:25.993Z,70.70
2018-05-13T03:41:57.868Z,71.80
2018-05-13T03:44:28.908Z,72.30
2018-05-13T03:46:59.232Z,72.10
2018-05-13T03:49:30.596Z,73.00
2018-05-13T03:52:00.627Z,73.80
2018-05-13T03:54:32.328Z,74.20
2018-05-13T03:57:01.980Z,74.30
2018-05-13T03:59:32.711Z,74.40
2018-05-13T04:02:03.025Z,75.00
2018-05-13T04:04:33.394Z,74.80
2018-05-13T04:07:03.472Z,75.10
2018-05-13T04:09:45.679Z,75.60
2018-05-13T04:15:30.824Z,76.10
2018-05-13T04:18:00.862Z,76.50
2018-05-13T04:20:32.344Z,77.90
2018-05-13T04:23:02.852Z,78.20
2018-05-13T04:25:33.800Z,79.10
2018-05-13T04:28:04.736Z,79.40
2018-05-13T04:30:35.788Z,80.40
2018-05-13T04:33:05.615Z,80.80
2018-05-13T04:35:36.930Z,81.20
2018-05-13T04:38:07.469Z,81.50
2018-05-13T04:40:37.613Z,81.40
2018-05-13T04:43:07.709Z,81.50
2018-05-13T04:45:37.737Z,81.50
2018-05-13T04:48:08.203Z,81.80
2018-05-13T04:50:38.276Z,81.90
2018-05-13T04:53:08.357Z,82.10
2018-05-13T04:55:38.432Z,81.90
2018-05-13T04:58:09.164Z,81.90
2018-05-13T05:00:38.868Z,81.70
2018-05-13T05:03:09.488Z,81.40
2018-05-13T05:05:39.570Z,82.00
2018-05-13T05:08:09.639Z,82.00
2018-05-13T05:10:41.311Z,82.20
2018-05-13T05:13:12.400Z,82.00
2018-05-13T05:15:42.764Z,82.40
2018-05-13T05:18:13.916Z,81.80
2018-05-13T05:20:43.715Z,81.10
2018-05-13T05:23:14.547Z,82.20
2018-05-13T05:25:46.707Z,81.60
2018-05-13T05:28:16.836Z,81.90
2018-05-13T05:30:48.532Z,82.30
2018-05-13T05:33:20.088Z,83.30
2018-05-13T05:36:07.229Z,84.10
2018-05-13T05:38:38.677Z,84.30
2018-05-13T05:41:08.744Z,83.80
2018-05-13T05:43:38.427Z,83.90
2018-05-13T05:46:09.000Z,84.20
2018-05-13T05:48:40.138Z,84.00
2018-05-13T05:51:11.380Z,83.70
2018-05-13T05:53:41.813Z,83.90
2018-05-13T05:56:12.244Z,84.80
2018-05-13T05:58:42.966Z,84.10
2018-05-13T06:01:14.173Z,84.10
2018-05-13T06:03:44.233Z,84.00
2018-05-13T06:06:14.352Z,84.00
2018-05-13T06:08:44.468Z,82.80
2018-05-13T06:11:14.479Z,80.50
2018-05-13T06:13:45.413Z,80.20
2018-05-13T06:16:15.971Z,79.10
2018-05-13T06:18:47.793Z,79.10
2018-05-13T06:21:19.899Z,78.80
2018-05-13T06:23:50.304Z,78.70
2018-05-13T06:26:20.739Z,77.60
2018-05-13T06:28:51.521Z,78.70
2018-05-13T06:31:23.327Z,78.50
2018-05-13T06:33:53.768Z,78.90
2018-05-13T06:36:24.088Z,77.40
2018-05-13T06:38:54.705Z,77.60
2018-05-13T06:41:24.940Z,77.80
2018-05-13T06:43:56.301Z,79.40
2018-05-13T06:46:26.400Z,79.30
2018-05-13T06:48:56.134Z,80.50
2018-05-13T06:51:26.167Z,80.70
2018-05-13T06:53:55.939Z,81.70
2018-05-13T06:56:25.979Z,82.90
2018-05-13T06:58:55.886Z,83.50
2018-05-13T07:01:25.931Z,83.70
2018-05-13T07:03:56.232Z,84.00
2018-05-13T07:06:26.398Z,84.50
2018-05-13T07:08:56.459Z,84.80
2018-05-13T07:11:28.227Z,84.90
2018-05-13T07:13:58.347Z,84.30
2018-05-13T07:16:28.490Z,85.90
2018-05-13T07:18:58.660Z,86.40
2018-05-13T07:21:28.784Z,86.20
2018-05-13T07:23:58.910Z,85.90
2018-05-13T07:26:28.932Z,85.60
2018-05-13T07:28:58.981Z,85.60
2018-05-13T07:31:29.009Z,84.80
2018-05-13T07:33:59.111Z,84.30
2018-05-13T07:36:29.238Z,83.40
2018-05-13T07:38:59.332Z,82.10
2018-05-13T07:41:29.457Z,81.00
2018-05-13T07:44:00.708Z,81.60
2018-05-13T07:46:30.736Z,81.40
2018-05-13T07:49:00.848Z,80.80
2018-05-13T07:51:31.326Z,80.70
2018-05-13T07:54:07.047Z,81.00
2018-05-13T07:56:37.541Z,81.00
2018-05-13T07:59:07.584Z,81.20
2018-05-13T08:01:37.692Z,82.00
2018-05-13T08:04:07.824Z,81.90
2018-05-13T08:06:37.935Z,81.70
2018-05-13T08:09:08.051Z,81.60
2018-05-13T08:11:38.099Z,81.60
2018-05-13T08:14:08.233Z,79.50
2018-05-13T08:16:38.417Z,80.80
2018-05-13T08:19:08.509Z,81.40
2018-05-13T08:21:38.174Z,78.40
2018-05-13T08:24:08.259Z,79.10
2018-05-13T08:26:38.376Z,79.40
2018-05-13T08:29:08.512Z,79.60
2018-05-13T08:31:38.627Z,79.60
2018-05-13T08:34:08.904Z,78.20
2018-05-13T08:36:38.968Z,79.80
2018-05-13T08:39:09.085Z,79.80
2018-05-13T08:41:39.095Z,79.50
2018-05-13T08:44:09.136Z,79.80
2018-05-13T08:46:39.347Z,79.90
2018-05-13T08:49:09.451Z,79.90
2018-05-13T08:51:39.564Z,79.90
2018-05-13T08:54:11.375Z,80.10
2018-05-13T08:56:41.539Z,80.30
2018-05-13T08:59:11.613Z,80.40
2018-05-13T09:01:41.691Z,80.10
2018-05-13T09:04:13.623Z,80.10
2018-05-13T09:06:43.891Z,80.20
2018-05-13T09:09:14.103Z,80.10
2018-05-13T09:11:44.589Z,79.80
2018-05-13T09:14:14.961Z,79.20
2018-05-13T09:16:57.892Z,79.30
2018-05-13T09:19:28.012Z,80.00
2018-05-13T09:21:58.488Z,80.70
2018-05-13T09:24:28.742Z,81.50
2018-05-13T09:26:58.868Z,81.80
2018-05-13T09:29:29.101Z,82.30
2018-05-13T09:31:59.274Z,82.60
2018-05-13T09:34:31.472Z,82.90
2018-05-13T09:37:01.636Z,83.20
2018-05-13T09:39:31.834Z,84.00
2018-05-13T09:42:01.951Z,84.70
2018-05-13T09:44:32.021Z,85.20
2018-05-13T09:47:02.092Z,84.10
2018-05-13T09:49:32.232Z,85.40
2018-05-13T09:52:02.275Z,85.30
2018-05-13T09:54:32.815Z,84.80
2018-05-13T09:57:02.984Z,85.20
2018-05-13T09:59:33.111Z,85.30
2018-05-13T10:02:03.259Z,86.00
2018-05-13T10:04:33.383Z,86.10
2018-05-13T10:07:03.494Z,86.30
2018-05-13T10:09:33.720Z,85.80
2018-05-13T10:12:03.806Z,85.30
2018-05-13T10:14:33.849Z,85.10
2018-05-13T10:17:03.975Z,84.60
2018-05-13T10:19:34.101Z,84.20
2018-05-13T10:22:04.284Z,83.80
2018-05-13T10:24:34.408Z,82.70
2018-05-13T10:27:04.449Z,82.50
2018-05-13T10:29:34.619Z,81.20
2018-05-13T10:32:04.656Z,81.50
2018-05-13T10:34:34.784Z,81.20
2018-05-13T10:37:04.905Z,81.20
2018-05-13T10:39:35.028Z,81.10
2018-05-13T10:42:06.277Z,81.70
2018-05-13T10:44:36.427Z,81.00
2018-05-13T10:47:07.562Z,80.40
2018-05-13T10:49:37.683Z,79.10
2018-05-13T10:52:07.775Z,78.40
2018-05-13T10:54:37.903Z,76.90
2018-05-13T10:57:07.969Z,75.20
2018-05-13T10:59:38.012Z,72.50
2018-05-13T11:02:08.039Z,72.50
2018-05-13T11:04:38.125Z,71.60
2018-05-13T11:07:08.200Z,71.50
2018-05-13T11:09:38.288Z,70.00
2018-05-13T11:12:08.406Z,70.50
2018-05-13T11:14:38.557Z,70.30
2018-05-13T11:17:08.668Z,70.60
2018-05-13T11:19:38.720Z,70.00
2018-05-13T11:22:08.923Z,68.40
2018-05-13T11:24:39.031Z,66.50
2018-05-13T11:27:09.285Z,65.20
2018-05-13T11:29:39.356Z,65.10
2018-05-13T11:32:09.444Z,64.90
2018-05-13T11:34:39.517Z,63.40
2018-05-13T11:37:09.615Z,63.20
2018-05-13T11:39:39.805Z,60.90
2018-05-13T11:42:09.887Z,60.00
2018-05-13T11:44:39.988Z,60.00
2018-05-13T11:47:10.009Z,59.50
2018-05-13T11:49:40.168Z,59.60
2018-05-13T11:52:10.292Z,58.00
2018-05-13T11:54:40.471Z,58.40
2018-05-13T11:57:10.567Z,57.50
2018-05-13T11:59:40.600Z,57.60
2018-05-13T12:02:10.733Z,55.80
2018-05-13T12:04:40.797Z,55.70
2018-05-13T12:07:10.869Z,55.90
2018-05-13T12:09:40.991Z,54.70
2018-05-13T12:12:11.311Z,56.20
2018-05-13T12:14:42.459Z,54.40
2018-05-13T12:17:14.680Z,52.10
2018-05-13T12:19:44.800Z,52.50
2018-05-13T12:22:15.001Z,52.70
2018-05-13T12:24:45.450Z,53.10
2018-05-13T12:27:16.601Z,54.00
2018-05-13T12:29:47.537Z,54.20
2018-05-13T12:32:29.896Z,54.80
2018-05-13T12:35:00.220Z,53.00
2018-05-13T12:37:30.387Z,53.70
2018-05-13T12:40:00.754Z,54.70
2018-05-13T12:42:30.990Z,54.90
2018-05-13T12:45:01.105Z,55.40
2018-05-13T12:47:31.320Z,55.60
2018-05-13T12:50:01.607Z,55.80
2018-05-13T12:52:31.945Z,56.40
2018-05-13T12:55:02.198Z,56.60
2018-05-13T12:57:32.523Z,56.10
2018-05-13T13:00:02.639Z,55.70
2018-05-13T13:02:34.580Z,55.10
2018-05-13T13:05:04.825Z,54.60
2018-05-13T13:07:35.119Z,54.60
2018-05-13T13:10:05.261Z,54.80
2018-05-13T13:12:35.848Z,55.20
2018-05-13T13:15:06.749Z,55.80
2018-05-13T13:17:44.387Z,55.40
2018-05-13T13:20:15.794Z,56.20
2018-05-13T13:22:47.165Z,55.20
2018-05-13T13:25:17.768Z,54.30
2018-05-13T13:27:47.899Z,52.30
2018-05-13T13:30:18.052Z,53.60
2018-05-13T13:32:48.350Z,53.80
2018-05-13T13:35:18.453Z,53.70
2018-05-13T13:37:48.687Z,53.70
2018-05-13T13:40:18.902Z,53.80
2018-05-13T13:42:49.024Z,53.80
2018-05-13T13:45:22.765Z,55.00
2018-05-13T13:47:52.857Z,55.50
2018-05-13T13:50:22.955Z,55.30
2018-05-13T13:52:53.124Z,55.60
2018-05-13T13:55:25.874Z,56.00
2018-05-13T13:57:58.782Z,56.20
2018-05-13T14:00:29.268Z,57.20
2018-05-13T14:02:59.719Z,57.00
2018-05-13T14:05:29.401Z,57.10
2018-05-13T14:07:59.766Z,57.50
2018-05-13T14:10:29.981Z,57.80
2018-05-13T14:13:00.308Z,58.10
2018-05-13T14:15:30.616Z,58.30
2018-05-13T14:18:01.935Z,58.60
2018-05-13T14:20:32.194Z,59.00
2018-05-13T14:23:02.207Z,59.30
2018-05-13T14:25:38.693Z,59.10
2018-05-13T14:28:08.796Z,59.00
2018-05-13T14:30:38.891Z,59.40
2018-05-13T14:33:09.256Z,59.90
2018-05-13T14:35:39.363Z,59.80
2018-05-13T14:38:09.495Z,59.90
2018-05-13T14:40:39.814Z,60.30
2018-05-13T14:43:10.402Z,60.40
2018-05-13T14:45:40.874Z,59.90
2018-05-13T14:48:14.464Z,59.90
2018-05-13T14:50:44.717Z,59.70
2018-05-13T14:53:23.323Z,60.40
2018-05-13T14:55:53.409Z,60.70
2018-05-13T14:58:24.848Z,61.40
2018-05-13T15:00:57.422Z,60.30
2018-05-13T15:03:28.555Z,60.40
2018-05-13T15:05:59.089Z,60.70
2018-05-13T15:08:29.205Z,60.80
2018-05-13T15:11:00.296Z,61.00
2018-05-13T15:13:30.419Z,60.80
2018-05-13T15:16:01.156Z,60.70
2018-05-13T15:18:32.653Z,60.70
2018-05-13T15:21:04.390Z,60.90
2018-05-13T15:23:35.113Z,61.50
2018-05-13T15:26:05.540Z,62.10
2018-05-13T15:28:45.257Z,62.80
2018-05-13T15:31:21.224Z,62.90
2018-05-13T15:33:51.982Z,63.40
2018-05-13T15:36:22.077Z,63.90
2018-05-13T15:38:52.499Z,64.00
2018-05-13T15:41:23.347Z,64.70
2018-05-13T15:43:53.440Z,65.30
2018-05-13T15:46:23.507Z,65.40
2018-05-13T15:48:53.715Z,65.70
2018-05-13T15:51:23.902Z,65.90
2018-05-13T15:53:54.270Z,66.00
2018-05-13T15:56:24.404Z,66.20
2018-05-13T16:01:36.041Z,66.30
2018-05-13T16:04:06.102Z,65.80
2018-05-13T16:06:36.253Z,67.70
2018-05-13T16:09:06.407Z,66.20
2018-05-13T16:11:36.548Z,66.50
2018-05-13T16:14:06.996Z,66.50
2018-05-13T16:16:37.097Z,66.60
2018-05-13T16:19:07.259Z,66.90
2018-05-13T16:21:37.384Z,67.20
2018-05-13T16:24:07.449Z,67.00
2018-05-13T16:26:37.593Z,67.00
2018-05-13T16:29:07.640Z,65.30
2018-05-13T16:31:37.757Z,67.50
2018-05-13T16:34:07.879Z,67.70
2018-05-13T16:36:38.371Z,67.70
2018-05-13T16:39:08.595Z,68.20
2018-05-13T16:41:38.771Z,68.30
2018-05-13T16:44:08.940Z,68.40
2018-05-13T16:46:39.249Z,64.80
2018-05-13T16:49:09.490Z,68.70
2018-05-13T16:51:39.608Z,67.70
2018-05-13T16:54:09.781Z,69.20
2018-05-13T16:56:39.853Z,69.20
2018-05-13T16:59:09.968Z,69.70
2018-05-13T17:01:40.106Z,69.90
2018-05-13T17:04:10.207Z,70.10
2018-05-13T17:06:40.390Z,70.20
2018-05-13T17:09:10.736Z,70.50
2018-05-13T17:11:41.293Z,70.70
2018-05-13T17:14:11.780Z,70.90
2018-05-13T17:16:42.134Z,71.50
2018-05-13T17:19:12.476Z,71.40
2018-05-13T17:21:42.809Z,72.00
2018-05-13T17:24:13.143Z,72.20
2018-05-13T17:26:44.567Z,72.60
2018-05-13T17:29:15.071Z,72.80
2018-05-13T17:31:46.624Z,73.20
2018-05-13T17:34:17.038Z,73.50
2018-05-13T17:36:47.558Z,73.60
2018-05-13T17:39:17.915Z,73.80
2018-05-13T17:41:48.455Z,73.90
2018-05-13T17:44:18.795Z,74.10
2018-05-13T17:46:49.226Z,74.10
2018-05-13T17:49:19.612Z,74.10
2018-05-13T17:51:49.892Z,74.40
2018-05-13T17:54:20.308Z,74.40
2018-05-13T17:56:50.477Z,74.60
2018-05-13T17:59:20.750Z,74.60
2018-05-13T18:01:51.242Z,74.90
2018-05-13T18:04:22.237Z,74.90
2018-05-13T18:06:52.894Z,75.20
2018-05-13T18:09:23.277Z,75.40
2018-05-13T18:11:53.821Z,75.50
2018-05-13T18:14:24.233Z,76.00
2018-05-13T18:16:54.602Z,76.30
2018-05-13T18:19:25.723Z,76.70
2018-05-13T18:21:56.226Z,77.10
2018-05-13T18:24:26.566Z,77.40
2018-05-13T18:26:56.993Z,77.80
2018-05-13T18:29:27.303Z,78.00
2018-05-13T18:31:57.791Z,78.30
2018-05-13T18:34:28.273Z,78.50
2018-05-13T18:36:59.000Z,78.70
2018-05-13T18:39:29.386Z,79.00
2018-05-13T18:42:00.127Z,79.20
2018-05-13T18:44:30.568Z,79.30
2018-05-13T18:47:00.934Z,79.60
2018-05-13T18:49:31.508Z,79.80
2018-05-13T18:52:02.355Z,80.10
2018-05-13T18:54:32.879Z,80.00
2018-05-13T18:57:03.454Z,80.10
2018-05-13T18:59:33.977Z,80.20
2018-05-13T19:02:05.553Z,80.30
2018-05-13T19:04:36.332Z,80.30
2018-05-13T19:07:07.725Z,80.40
2018-05-13T19:09:38.174Z,80.50
2018-05-13T19:12:08.940Z,80.60
2018-05-13T19:20:13.875Z,80.70
2018-05-13T19:22:44.168Z,77.50
2018-05-13T19:25:14.641Z,81.10
2018-05-13T19:27:45.108Z,81.20
2018-05-13T19:30:15.650Z,81.60
2018-05-13T19:32:46.095Z,81.30
2018-05-13T19:35:16.275Z,81.50
2018-05-13T19:37:46.183Z,81.60
2018-05-13T19:40:16.355Z,81.70
2018-05-13T19:42:46.575Z,81.70
2018-05-13T19:45:16.299Z,81.80
2018-05-13T19:47:46.470Z,81.90
2018-05-13T19:50:16.740Z,78.50
2018-05-13T19:52:48.057Z,82.60
2018-05-13T19:55:18.407Z,82.10
2018-05-13T19:57:48.443Z,82.00
2018-05-13T20:00:18.933Z,82.00
2018-05-13T20:02:49.595Z,82.10
2018-05-13T20:05:19.815Z,82.10
2018-05-13T20:07:50.249Z,79.50
2018-05-13T20:10:20.867Z,82.20
2018-05-13T20:12:51.143Z,82.20
2018-05-13T20:15:21.533Z,82.50
2018-05-13T20:17:51.792Z,82.30
2018-05-13T20:20:23.208Z,82.30
2018-05-13T20:23:35.489Z,82.30
2018-05-13T20:26:05.900Z,82.20
2018-05-13T20:28:36.056Z,82.30
2018-05-13T20:31:06.178Z,82.30
2018-05-13T20:33:36.283Z,78.20
2018-05-13T20:36:06.415Z,82.10
2018-05-13T20:38:36.539Z,82.30
2018-05-13T20:41:06.657Z,82.30
2018-05-13T20:43:36.718Z,82.20
2018-05-13T20:46:06.840Z,82.00
2018-05-13T20:48:36.591Z,82.00
2018-05-13T20:51:07.622Z,82.10
2018-05-13T20:53:38.184Z,82.10
2018-05-13T20:56:08.603Z,81.80
2018-05-13T20:58:38.824Z,81.60
2018-05-13T21:01:08.539Z,81.70
2018-05-13T21:03:38.662Z,81.70
2018-05-13T21:06:08.780Z,81.50
2018-05-13T21:08:38.895Z,81.50
2018-05-13T21:11:09.303Z,81.50
2018-05-13T21:13:39.544Z,84.20
2018-05-13T21:16:09.699Z,81.40
2018-05-13T21:18:39.780Z,81.30
2018-05-13T21:21:09.899Z,81.10
2018-05-13T21:23:40.076Z,81.40
2018-05-13T21:26:10.548Z,81.40
2018-05-13T21:28:40.616Z,81.60
2018-05-13T21:31:10.655Z,81.70
2018-05-13T21:33:40.804Z,81.80
2018-05-13T21:36:10.976Z,81.80
2018-05-13T21:38:41.040Z,81.80
2018-05-13T21:41:10.751Z,81.90
2018-05-13T21:43:40.872Z,77.80
2018-05-13T21:46:10.994Z,82.00
2018-05-13T21:48:41.120Z,82.00
2018-05-13T21:51:11.239Z,82.20
2018-05-13T21:53:41.358Z,82.30
2018-05-13T21:56:11.476Z,82.40
2018-05-13T21:58:41.647Z,82.50
2018-05-13T22:01:11.767Z,82.60
2018-05-13T22:03:41.832Z,82.50
2018-05-13T22:06:11.844Z,82.70
2018-05-13T22:08:41.976Z,83.00
2018-05-13T22:11:12.453Z,83.00
2018-05-13T22:13:42.525Z,83.10
2018-05-13T22:16:12.640Z,83.20
2018-05-13T22:18:42.691Z,83.00
2018-05-13T22:21:12.820Z,83.20
2018-05-13T22:23:43.004Z,83.00
2018-05-13T22:26:13.120Z,83.10
2018-05-13T22:28:43.213Z,83.20
2018-05-13T22:31:13.366Z,83.30
2018-05-13T22:33:43.452Z,83.30
2018-05-13T22:36:13.508Z,79.30
2018-05-13T22:38:43.781Z,83.30
2018-05-13T22:41:13.840Z,83.40
2018-05-13T22:43:43.554Z,83.30
2018-05-13T22:46:13.608Z,83.30
2018-05-13T22:48:43.283Z,83.20
2018-05-13T22:51:13.711Z,83.20
2018-05-13T22:53:43.763Z,82.30
2018-05-13T22:56:13.842Z,82.80
2018-05-13T22:58:43.961Z,82.70
2018-05-13T23:01:14.072Z,82.60
2018-05-13T23:03:44.169Z,82.60
2018-05-13T23:06:15.011Z,82.50
2018-05-13T23:08:45.024Z,85.80
2018-05-13T23:11:15.046Z,82.60
2018-05-13T23:13:45.166Z,82.50
2018-05-13T23:16:15.208Z,83.20
2018-05-13T23:18:45.294Z,84.30
2018-05-13T23:21:15.392Z,85.00
2018-05-13T23:23:45.528Z,85.50
2018-05-13T23:26:15.192Z,86.20
2018-05-13T23:28:45.308Z,86.80
2018-05-13T23:31:15.424Z,87.50
2018-05-13T23:33:45.543Z,87.70
2018-05-13T23:36:15.240Z,87.90
2018-05-13T23:38:44.970Z,88.10
2018-05-13T23:41:15.119Z,88.30
2018-05-13T23:43:46.721Z,88.70
2018-05-13T23:46:17.224Z,90.80
2018-05-13T23:48:47.718Z,89.10
2018-05-13T23:51:18.734Z,89.10
2018-05-13T23:53:49.228Z,89.00
2018-05-13T23:56:20.520Z,89.00
2018-05-13T23:58:52.689Z,89.00
